sensor_id;sensor_type;location;lat;lon;timestamp;pressure;altitude;pressure_sealevel;temperature;humidity
79690;BME280;69156;55.932;-3.238;2023-07-22T00:00:43;100248.06;;;15.90;58.45
79690;BME280;69156;55.932;-3.238;2023-07-22T00:03:08;100244.91;;;15.76;58.08
79690;BME280;69156;55.932;-3.238;2023-07-22T00:05:34;100247.12;;;15.55;58.68
79690;BME280;69156;55.932;-3.238;2023-07-22T00:07:59;100247.53;;;15.80;59.24
79690;BME280;69156;55.932;-3.238;2023-07-22T00:10:24;100245.39;;;15.70;60.00
79690;BME280;69156;55.932;-3.238;2023-07-22T00:12:50;100240.40;;;15.52;60.65
79690;BME280;69156;55.932;-3.238;2023-07-22T00:15:15;100237.38;;;15.61;60.08
79690;BME280;69156;55.932;-3.238;2023-07-22T00:17:42;100238.47;;;15.62;60.70
79690;BME280;69156;55.932;-3.238;2023-07-22T00:20:08;100232.95;;;15.59;60.48
79690;BME280;69156;55.932;-3.238;2023-07-22T00:22:32;100230.14;;;15.65;58.91
79690;BME280;69156;55.932;-3.238;2023-07-22T00:24:57;100226.53;;;15.62;59.10
79690;BME280;69156;55.932;-3.238;2023-07-22T00:27:22;100223.78;;;15.65;58.75
79690;BME280;69156;55.932;-3.238;2023-07-22T00:29:48;100221.87;;;15.63;59.29
79690;BME280;69156;55.932;-3.238;2023-07-22T00:32:14;100220.55;;;15.66;59.38
79690;BME280;69156;55.932;-3.238;2023-07-22T00:34:39;100217.32;;;15.62;59.82
79690;BME280;69156;55.932;-3.238;2023-07-22T00:37:04;100215.59;;;15.57;59.66
79690;BME280;69156;55.932;-3.238;2023-07-22T00:39:30;100212.12;;;15.46;60.51
79690;BME280;69156;55.932;-3.238;2023-07-22T00:41:55;100211.20;;;15.51;60.28
79690;BME280;69156;55.932;-3.238;2023-07-22T00:44:20;100208.90;;;15.57;60.24
79690;BME280;69156;55.932;-3.238;2023-07-22T00:46:46;100200.13;;;15.57;60.29
79690;BME280;69156;55.932;-3.238;2023-07-22T00:49:12;100196.64;;;15.55;59.75
79690;BME280;69156;55.932;-3.238;2023-07-22T00:51:37;100191.03;;;15.85;57.73
79690;BME280;69156;55.932;-3.238;2023-07-22T00:54:03;100187.05;;;16.06;57.59
79690;BME280;69156;55.932;-3.238;2023-07-22T00:56:28;100186.80;;;15.79;58.98
79690;BME280;69156;55.932;-3.238;2023-07-22T00:58:55;100183.04;;;15.68;59.54
79690;BME280;69156;55.932;-3.238;2023-07-22T01:01:19;100178.67;;;15.62;60.23
79690;BME280;69156;55.932;-3.238;2023-07-22T01:03:45;100176.04;;;15.56;59.87
79690;BME280;69156;55.932;-3.238;2023-07-22T01:06:10;100180.24;;;15.77;56.60
79690;BME280;69156;55.932;-3.238;2023-07-22T01:08:36;100176.78;;;15.80;56.72
79690;BME280;69156;55.932;-3.238;2023-07-22T01:11:01;100170.99;;;15.69;56.94
79690;BME280;69156;55.932;-3.238;2023-07-22T01:13:27;100167.03;;;15.65;57.13
79690;BME280;69156;55.932;-3.238;2023-07-22T01:15:53;100163.07;;;15.48;57.79
79690;BME280;69156;55.932;-3.238;2023-07-22T01:18:18;100160.56;;;15.64;58.01
79690;BME280;69156;55.932;-3.238;2023-07-22T01:20:46;100159.05;;;15.53;58.57
79690;BME280;69156;55.932;-3.238;2023-07-22T01:23:10;100160.14;;;15.43;58.50
79690;BME280;69156;55.932;-3.238;2023-07-22T01:25:36;100158.08;;;15.74;56.82
79690;BME280;69156;55.932;-3.238;2023-07-22T01:28:01;100154.69;;;15.58;56.95
79690;BME280;69156;55.932;-3.238;2023-07-22T01:30:27;100152.60;;;15.61;56.79
79690;BME280;69156;55.932;-3.238;2023-07-22T01:32:52;100147.62;;;15.72;56.22
79690;BME280;69156;55.932;-3.238;2023-07-22T01:35:18;100141.64;;;15.74;56.17
79690;BME280;69156;55.932;-3.238;2023-07-22T01:37:43;100135.85;;;15.69;55.98
79690;BME280;69156;55.932;-3.238;2023-07-22T01:40:11;100131.96;;;15.68;56.27
79690;BME280;69156;55.932;-3.238;2023-07-22T01:42:35;100128.23;;;15.62;56.81
79690;BME280;69156;55.932;-3.238;2023-07-22T01:45:01;100125.24;;;15.68;56.65
79690;BME280;69156;55.932;-3.238;2023-07-22T01:47:26;100123.59;;;15.62;56.64
79690;BME280;69156;55.932;-3.238;2023-07-22T01:49:52;100118.91;;;15.59;56.62
79690;BME280;69156;55.932;-3.238;2023-07-22T01:52:17;100118.43;;;15.62;56.92
79690;BME280;69156;55.932;-3.238;2023-07-22T01:54:43;100115.89;;;15.64;57.10
79690;BME280;69156;55.932;-3.238;2023-07-22T01:57:09;100112.29;;;15.49;58.00
79690;BME280;69156;55.932;-3.238;2023-07-22T01:59:35;100111.81;;;15.27;58.49
79690;BME280;69156;55.932;-3.238;2023-07-22T02:02:01;100108.74;;;15.27;59.23
79690;BME280;69156;55.932;-3.238;2023-07-22T02:04:26;100104.24;;;15.18;59.67
79690;BME280;69156;55.932;-3.238;2023-07-22T02:06:51;100106.79;;;15.21;59.77
79690;BME280;69156;55.932;-3.238;2023-07-22T02:09:17;100104.44;;;15.19;59.77
79690;BME280;69156;55.932;-3.238;2023-07-22T02:11:43;100100.06;;;15.16;59.60
79690;BME280;69156;55.932;-3.238;2023-07-22T02:14:09;100098.30;;;15.10;60.36
79690;BME280;69156;55.932;-3.238;2023-07-22T02:16:34;100096.56;;;15.10;60.64
79690;BME280;69156;55.932;-3.238;2023-07-22T02:19:00;100094.45;;;15.25;60.26
79690;BME280;69156;55.932;-3.238;2023-07-22T02:21:26;100094.21;;;15.10;60.80
79690;BME280;69156;55.932;-3.238;2023-07-22T02:23:52;100093.13;;;15.18;60.23
79690;BME280;69156;55.932;-3.238;2023-07-22T02:26:17;100089.82;;;15.03;60.30
79690;BME280;69156;55.932;-3.238;2023-07-22T02:28:42;100086.41;;;15.10;60.51
79690;BME280;69156;55.932;-3.238;2023-07-22T02:31:07;100082.59;;;15.05;60.57
79690;BME280;69156;55.932;-3.238;2023-07-22T02:33:34;100084.16;;;15.13;60.94
79690;BME280;69156;55.932;-3.238;2023-07-22T02:36:00;100082.11;;;15.11;60.75
79690;BME280;69156;55.932;-3.238;2023-07-22T02:38:25;100078.70;;;15.14;60.89
79690;BME280;69156;55.932;-3.238;2023-07-22T02:40:51;100076.88;;;15.13;60.51
79690;BME280;69156;55.932;-3.238;2023-07-22T02:43:16;100074.80;;;15.01;60.87
79690;BME280;69156;55.932;-3.238;2023-07-22T02:45:42;100070.83;;;15.06;61.07
79690;BME280;69156;55.932;-3.238;2023-07-22T02:48:08;100072.88;;;14.98;61.30
79690;BME280;69156;55.932;-3.238;2023-07-22T02:50:35;100073.03;;;15.04;61.04
79690;BME280;69156;55.932;-3.238;2023-07-22T02:53:00;100071.22;;;15.09;61.00
79690;BME280;69156;55.932;-3.238;2023-07-22T02:55:25;100065.62;;;14.96;61.19
79690;BME280;69156;55.932;-3.238;2023-07-22T02:57:51;100059.33;;;15.16;61.23
79690;BME280;69156;55.932;-3.238;2023-07-22T03:00:18;100055.26;;;14.94;61.53
79690;BME280;69156;55.932;-3.238;2023-07-22T03:02:41;100055.08;;;15.08;61.77
79690;BME280;69156;55.932;-3.238;2023-07-22T03:05:07;100050.14;;;14.90;61.68
79690;BME280;69156;55.932;-3.238;2023-07-22T03:07:33;100048.03;;;14.79;62.32
79690;BME280;69156;55.932;-3.238;2023-07-22T03:09:58;100047.37;;;15.05;61.99
79690;BME280;69156;55.932;-3.238;2023-07-22T03:12:24;100048.71;;;14.92;61.80
79690;BME280;69156;55.932;-3.238;2023-07-22T03:14:50;100046.09;;;15.12;61.81
79690;BME280;69156;55.932;-3.238;2023-07-22T03:17:15;100043.82;;;15.04;61.58
79690;BME280;69156;55.932;-3.238;2023-07-22T03:19:40;100040.98;;;15.04;61.20
79690;BME280;69156;55.932;-3.238;2023-07-22T03:22:06;100038.59;;;15.02;60.89
79690;BME280;69156;55.932;-3.238;2023-07-22T03:24:32;100038.33;;;15.04;60.89
79690;BME280;69156;55.932;-3.238;2023-07-22T03:26:57;100035.72;;;14.95;60.57
79690;BME280;69156;55.932;-3.238;2023-07-22T03:29:23;100036.51;;;15.07;60.29
79690;BME280;69156;55.932;-3.238;2023-07-22T03:31:48;100035.54;;;15.03;60.36
79690;BME280;69156;55.932;-3.238;2023-07-22T03:34:13;100035.80;;;14.82;60.58
79690;BME280;69156;55.932;-3.238;2023-07-22T03:36:39;100030.37;;;15.00;60.30
79690;BME280;69156;55.932;-3.238;2023-07-22T03:39:04;100027.55;;;15.04;60.28
79690;BME280;69156;55.932;-3.238;2023-07-22T03:41:30;100024.89;;;14.97;60.62
79690;BME280;69156;55.932;-3.238;2023-07-22T03:43:56;100020.72;;;14.88;60.53
79690;BME280;69156;55.932;-3.238;2023-07-22T03:46:21;100018.81;;;14.94;60.63
79690;BME280;69156;55.932;-3.238;2023-07-22T03:48:46;100017.26;;;14.95;60.30
79690;BME280;69156;55.932;-3.238;2023-07-22T03:51:11;100015.96;;;15.06;60.01
79690;BME280;69156;55.932;-3.238;2023-07-22T03:53:37;100015.02;;;14.92;60.45
79690;BME280;69156;55.932;-3.238;2023-07-22T03:56:02;100015.29;;;14.82;60.41
79690;BME280;69156;55.932;-3.238;2023-07-22T03:58:27;100011.43;;;15.03;60.09
79690;BME280;69156;55.932;-3.238;2023-07-22T04:00:52;100008.55;;;14.91;59.84
79690;BME280;69156;55.932;-3.238;2023-07-22T04:03:18;100007.72;;;14.93;59.67
79690;BME280;69156;55.932;-3.238;2023-07-22T04:05:43;100009.59;;;14.97;59.77
79690;BME280;69156;55.932;-3.238;2023-07-22T04:08:09;100006.02;;;15.08;60.01
79690;BME280;69156;55.932;-3.238;2023-07-22T04:10:34;100002.34;;;14.97;60.07
79690;BME280;69156;55.932;-3.238;2023-07-22T04:13:00;99999.43;;;14.91;60.26
79690;BME280;69156;55.932;-3.238;2023-07-22T04:15:25;99995.39;;;14.94;60.17
79690;BME280;69156;55.932;-3.238;2023-07-22T04:17:51;99994.70;;;14.86;60.25
79690;BME280;69156;55.932;-3.238;2023-07-22T04:20:16;99990.21;;;14.88;60.31
79690;BME280;69156;55.932;-3.238;2023-07-22T04:22:42;99987.31;;;14.94;60.60
79690;BME280;69156;55.932;-3.238;2023-07-22T04:25:07;99983.31;;;14.82;60.80
79690;BME280;69156;55.932;-3.238;2023-07-22T04:27:33;99980.40;;;15.05;61.08
79690;BME280;69156;55.932;-3.238;2023-07-22T04:29:58;99980.29;;;14.86;60.93
79690;BME280;69156;55.932;-3.238;2023-07-22T04:32:24;99977.41;;;15.15;60.75
79690;BME280;69156;55.932;-3.238;2023-07-22T04:34:49;99974.60;;;14.99;61.16
79690;BME280;69156;55.932;-3.238;2023-07-22T04:37:15;99973.23;;;14.94;61.25
79690;BME280;69156;55.932;-3.238;2023-07-22T04:39:40;99970.31;;;15.14;61.07
79690;BME280;69156;55.932;-3.238;2023-07-22T04:42:06;99968.04;;;15.19;61.06
79690;BME280;69156;55.932;-3.238;2023-07-22T04:44:31;99966.55;;;15.21;61.22
79690;BME280;69156;55.932;-3.238;2023-07-22T04:46:57;99963.66;;;15.13;61.46
79690;BME280;69156;55.932;-3.238;2023-07-22T04:49:22;99964.58;;;15.12;61.64
79690;BME280;69156;55.932;-3.238;2023-07-22T04:51:48;99959.01;;;15.12;61.89
79690;BME280;69156;55.932;-3.238;2023-07-22T04:54:14;99954.78;;;15.18;62.35
79690;BME280;69156;55.932;-3.238;2023-07-22T04:56:39;99950.90;;;15.10;62.35
79690;BME280;69156;55.932;-3.238;2023-07-22T04:59:03;99953.87;;;15.13;62.44
79690;BME280;69156;55.932;-3.238;2023-07-22T05:01:30;99953.35;;;15.16;62.50
79690;BME280;69156;55.932;-3.238;2023-07-22T05:03:56;99953.29;;;15.14;62.83
79690;BME280;69156;55.932;-3.238;2023-07-22T05:06:21;99951.04;;;15.13;62.85
79690;BME280;69156;55.932;-3.238;2023-07-22T05:08:47;99948.78;;;15.05;62.93
79690;BME280;69156;55.932;-3.238;2023-07-22T05:11:13;99946.55;;;15.10;63.07
79690;BME280;69156;55.932;-3.238;2023-07-22T05:13:39;99947.24;;;15.11;63.05
79690;BME280;69156;55.932;-3.238;2023-07-22T05:16:05;99943.74;;;15.20;63.35
79690;BME280;69156;55.932;-3.238;2023-07-22T05:18:31;99940.66;;;15.18;63.10
79690;BME280;69156;55.932;-3.238;2023-07-22T05:20:56;99941.27;;;15.11;63.22
79690;BME280;69156;55.932;-3.238;2023-07-22T05:23:21;99942.44;;;15.17;63.31
79690;BME280;69156;55.932;-3.238;2023-07-22T05:25:50;99943.14;;;15.10;63.62
79690;BME280;69156;55.932;-3.238;2023-07-22T05:28:12;99938.47;;;15.16;63.33
79690;BME280;69156;55.932;-3.238;2023-07-22T05:30:37;99939.89;;;14.96;63.70
79690;BME280;69156;55.932;-3.238;2023-07-22T05:33:03;99941.46;;;15.05;63.58
79690;BME280;69156;55.932;-3.238;2023-07-22T05:35:28;99943.36;;;15.05;63.85
79690;BME280;69156;55.932;-3.238;2023-07-22T05:37:53;99940.60;;;15.15;63.70
79690;BME280;69156;55.932;-3.238;2023-07-22T05:40:19;99939.55;;;15.15;63.75
79690;BME280;69156;55.932;-3.238;2023-07-22T05:42:44;99935.37;;;15.25;63.67
79690;BME280;69156;55.932;-3.238;2023-07-22T05:45:10;99931.21;;;15.07;63.52
79690;BME280;69156;55.932;-3.238;2023-07-22T05:47:36;99925.95;;;15.01;63.36
79690;BME280;69156;55.932;-3.238;2023-07-22T05:50:01;99926.80;;;15.07;63.39
79690;BME280;69156;55.932;-3.238;2023-07-22T05:52:27;99928.26;;;14.90;63.20
79690;BME280;69156;55.932;-3.238;2023-07-22T05:54:52;99928.71;;;14.95;63.01
79690;BME280;69156;55.932;-3.238;2023-07-22T05:57:17;99926.94;;;15.01;63.12
79690;BME280;69156;55.932;-3.238;2023-07-22T05:59:43;99926.81;;;15.00;62.92
79690;BME280;69156;55.932;-3.238;2023-07-22T06:02:08;99926.17;;;14.99;62.88
79690;BME280;69156;55.932;-3.238;2023-07-22T06:04:33;99923.56;;;14.99;62.80
79690;BME280;69156;55.932;-3.238;2023-07-22T06:06:59;99920.78;;;14.95;62.88
79690;BME280;69156;55.932;-3.238;2023-07-22T06:09:24;99916.76;;;14.69;62.88
79690;BME280;69156;55.932;-3.238;2023-07-22T06:11:50;99918.26;;;14.88;62.98
79690;BME280;69156;55.932;-3.238;2023-07-22T06:14:15;99917.71;;;15.04;62.85
79690;BME280;69156;55.932;-3.238;2023-07-22T06:16:41;99916.78;;;15.03;62.92
79690;BME280;69156;55.932;-3.238;2023-07-22T06:19:06;99914.65;;;14.92;62.96
79690;BME280;69156;55.932;-3.238;2023-07-22T06:21:32;99913.84;;;15.04;62.94
79690;BME280;69156;55.932;-3.238;2023-07-22T06:23:57;99914.93;;;15.00;62.63
79690;BME280;69156;55.932;-3.238;2023-07-22T06:26:22;99915.19;;;14.85;62.72
79690;BME280;69156;55.932;-3.238;2023-07-22T06:28:48;99913.42;;;14.98;62.37
79690;BME280;69156;55.932;-3.238;2023-07-22T06:31:13;99914.60;;;15.19;62.19
79690;BME280;69156;55.932;-3.238;2023-07-22T06:33:39;99913.06;;;15.18;62.25
79690;BME280;69156;55.932;-3.238;2023-07-22T06:36:05;99913.88;;;15.18;62.17
79690;BME280;69156;55.932;-3.238;2023-07-22T06:38:31;99912.76;;;15.44;62.02
79690;BME280;69156;55.932;-3.238;2023-07-22T06:40:56;99907.78;;;15.40;61.37
79690;BME280;69156;55.932;-3.238;2023-07-22T06:43:22;99906.89;;;15.57;61.19
79690;BME280;69156;55.932;-3.238;2023-07-22T06:45:49;99905.31;;;15.54;60.66
79690;BME280;69156;55.932;-3.238;2023-07-22T06:48:14;99906.80;;;15.33;60.65
79690;BME280;69156;55.932;-3.238;2023-07-22T06:50:46;99905.25;;;15.69;60.79
79690;BME280;69156;55.932;-3.238;2023-07-22T06:53:05;99907.50;;;15.51;60.72
79690;BME280;69156;55.932;-3.238;2023-07-22T06:55:32;99904.32;;;15.48;60.65
79690;BME280;69156;55.932;-3.238;2023-07-22T06:57:56;99902.53;;;15.51;60.45
79690;BME280;69156;55.932;-3.238;2023-07-22T07:00:22;99902.64;;;15.62;60.49
79690;BME280;69156;55.932;-3.238;2023-07-22T07:02:46;99900.51;;;15.76;60.49
79690;BME280;69156;55.932;-3.238;2023-07-22T07:05:11;99900.70;;;15.63;59.71
79690;BME280;69156;55.932;-3.238;2023-07-22T07:07:37;99900.44;;;15.79;59.86
79690;BME280;69156;55.932;-3.238;2023-07-22T07:10:02;99902.38;;;15.70;60.33
79690;BME280;69156;55.932;-3.238;2023-07-22T07:12:27;99899.07;;;15.89;60.20
79690;BME280;69156;55.932;-3.238;2023-07-22T07:14:53;99895.13;;;16.01;60.16
79690;BME280;69156;55.932;-3.238;2023-07-22T07:17:19;99893.66;;;15.89;60.42
79690;BME280;69156;55.932;-3.238;2023-07-22T07:19:43;99895.22;;;16.21;59.56
79690;BME280;69156;55.932;-3.238;2023-07-22T07:22:12;99897.86;;;16.18;59.35
79690;BME280;69156;55.932;-3.238;2023-07-22T07:24:34;99898.50;;;16.12;58.94
79690;BME280;69156;55.932;-3.238;2023-07-22T07:27:00;99896.75;;;16.12;58.73
79690;BME280;69156;55.932;-3.238;2023-07-22T07:29:26;99894.88;;;16.01;58.69
79690;BME280;69156;55.932;-3.238;2023-07-22T07:32:01;99893.72;;;16.10;58.39
79690;BME280;69156;55.932;-3.238;2023-07-22T07:34:25;99894.05;;;15.92;58.68
79690;BME280;69156;55.932;-3.238;2023-07-22T07:36:52;99893.69;;;16.11;58.47
79690;BME280;69156;55.932;-3.238;2023-07-22T07:39:17;99894.08;;;16.19;58.58
79690;BME280;69156;55.932;-3.238;2023-07-22T07:41:42;99892.81;;;16.14;58.46
79690;BME280;69156;55.932;-3.238;2023-07-22T07:44:07;99890.76;;;16.03;58.55
79690;BME280;69156;55.932;-3.238;2023-07-22T07:46:32;99893.56;;;16.16;58.60
79690;BME280;69156;55.932;-3.238;2023-07-22T07:48:59;99892.76;;;16.17;58.40
79690;BME280;69156;55.932;-3.238;2023-07-22T07:51:24;99892.36;;;16.09;58.50
79690;BME280;69156;55.932;-3.238;2023-07-22T07:53:49;99891.99;;;16.17;58.65
79690;BME280;69156;55.932;-3.238;2023-07-22T07:56:15;99890.48;;;16.24;58.46
79690;BME280;69156;55.932;-3.238;2023-07-22T07:58:45;99886.16;;;16.37;58.43
79690;BME280;69156;55.932;-3.238;2023-07-22T08:01:05;99887.51;;;16.51;58.37
79690;BME280;69156;55.932;-3.238;2023-07-22T08:03:31;99884.20;;;16.57;58.00
79690;BME280;69156;55.932;-3.238;2023-07-22T08:05:56;99881.85;;;16.60;58.11
79690;BME280;69156;55.932;-3.238;2023-07-22T08:08:21;99880.38;;;16.70;58.13
79690;BME280;69156;55.932;-3.238;2023-07-22T08:10:46;99879.41;;;16.75;58.11
79690;BME280;69156;55.932;-3.238;2023-07-22T08:13:12;99874.31;;;16.67;58.17
79690;BME280;69156;55.932;-3.238;2023-07-22T08:15:37;99877.96;;;16.73;57.49
79690;BME280;69156;55.932;-3.238;2023-07-22T08:18:04;99875.61;;;16.61;58.20
79690;BME280;69156;55.932;-3.238;2023-07-22T08:20:29;99871.33;;;16.66;58.51
79690;BME280;69156;55.932;-3.238;2023-07-22T08:22:54;99875.27;;;16.77;58.16
79690;BME280;69156;55.932;-3.238;2023-07-22T08:25:21;99873.55;;;16.85;57.91
79690;BME280;69156;55.932;-3.238;2023-07-22T08:27:46;99867.20;;;16.78;58.60
79690;BME280;69156;55.932;-3.238;2023-07-22T08:30:11;99865.57;;;16.77;58.15
79690;BME280;69156;55.932;-3.238;2023-07-22T08:32:36;99865.02;;;16.98;58.16
79690;BME280;69156;55.932;-3.238;2023-07-22T08:35:02;99862.32;;;16.82;58.35
79690;BME280;69156;55.932;-3.238;2023-07-22T08:37:27;99858.89;;;16.77;58.52
79690;BME280;69156;55.932;-3.238;2023-07-22T08:39:52;99864.91;;;16.92;59.07
79690;BME280;69156;55.932;-3.238;2023-07-22T08:42:19;99864.33;;;16.80;58.89
79690;BME280;69156;55.932;-3.238;2023-07-22T08:44:44;99862.95;;;16.83;59.21
79690;BME280;69156;55.932;-3.238;2023-07-22T08:47:11;99861.50;;;16.86;58.88
79690;BME280;69156;55.932;-3.238;2023-07-22T08:49:35;99864.49;;;16.73;58.97
79690;BME280;69156;55.932;-3.238;2023-07-22T08:52:00;99864.74;;;16.83;59.50
79690;BME280;69156;55.932;-3.238;2023-07-22T08:54:26;99860.97;;;16.81;59.31
79690;BME280;69156;55.932;-3.238;2023-07-22T08:56:51;99856.16;;;17.01;59.11
79690;BME280;69156;55.932;-3.238;2023-07-22T08:59:17;99852.20;;;16.75;59.26
79690;BME280;69156;55.932;-3.238;2023-07-22T09:01:43;99851.42;;;16.93;58.71
79690;BME280;69156;55.932;-3.238;2023-07-22T09:04:09;99848.73;;;16.83;58.78
79690;BME280;69156;55.932;-3.238;2023-07-22T09:06:34;99843.02;;;17.01;58.51
79690;BME280;69156;55.932;-3.238;2023-07-22T09:09:00;99840.96;;;17.34;58.20
79690;BME280;69156;55.932;-3.238;2023-07-22T09:11:26;99837.59;;;17.18;58.35
79690;BME280;69156;55.932;-3.238;2023-07-22T09:13:52;99837.98;;;16.98;58.73
79690;BME280;69156;55.932;-3.238;2023-07-22T09:16:17;99833.83;;;17.01;58.91
79690;BME280;69156;55.932;-3.238;2023-07-22T09:18:42;99830.79;;;17.35;59.10
79690;BME280;69156;55.932;-3.238;2023-07-22T09:21:07;99832.08;;;17.47;58.32
79690;BME280;69156;55.932;-3.238;2023-07-22T09:23:34;99828.15;;;17.68;58.33
79690;BME280;69156;55.932;-3.238;2023-07-22T09:26:08;99831.63;;;17.65;57.79
79690;BME280;69156;55.932;-3.238;2023-07-22T09:28:24;99826.66;;;17.62;57.45
79690;BME280;69156;55.932;-3.238;2023-07-22T09:30:49;99828.34;;;17.75;57.17
79690;BME280;69156;55.932;-3.238;2023-07-22T09:33:21;99826.98;;;17.79;57.11
79690;BME280;69156;55.932;-3.238;2023-07-22T09:35:45;99826.14;;;17.72;56.90
79690;BME280;69156;55.932;-3.238;2023-07-22T09:38:05;99826.27;;;17.79;57.61
79690;BME280;69156;55.932;-3.238;2023-07-22T09:40:30;99825.01;;;17.80;57.18
79690;BME280;69156;55.932;-3.238;2023-07-22T09:42:57;99826.26;;;17.80;56.91
79690;BME280;69156;55.932;-3.238;2023-07-22T09:45:23;99826.66;;;17.85;57.02
79690;BME280;69156;55.932;-3.238;2023-07-22T09:47:48;99825.27;;;17.92;57.14
79690;BME280;69156;55.932;-3.238;2023-07-22T09:50:14;99825.95;;;18.07;56.81
79690;BME280;69156;55.932;-3.238;2023-07-22T09:52:42;99823.70;;;18.10;56.30
79690;BME280;69156;55.932;-3.238;2023-07-22T09:55:03;99823.98;;;17.97;56.52
79690;BME280;69156;55.932;-3.238;2023-07-22T09:57:28;99823.97;;;17.99;56.10
79690;BME280;69156;55.932;-3.238;2023-07-22T09:59:53;99824.76;;;17.91;56.54
79690;BME280;69156;55.932;-3.238;2023-07-22T10:02:20;99825.52;;;18.18;56.35
79690;BME280;69156;55.932;-3.238;2023-07-22T10:04:44;99824.77;;;18.00;57.14
79690;BME280;69156;55.932;-3.238;2023-07-22T10:07:09;99824.50;;;17.81;58.89
79690;BME280;69156;55.932;-3.238;2023-07-22T10:09:35;99824.31;;;17.70;60.30
79690;BME280;69156;55.932;-3.238;2023-07-22T10:12:05;99820.53;;;17.76;59.64
79690;BME280;69156;55.932;-3.238;2023-07-22T10:14:31;99817.74;;;17.70;59.11
79690;BME280;69156;55.932;-3.238;2023-07-22T10:16:55;99817.24;;;17.82;59.13
79690;BME280;69156;55.932;-3.238;2023-07-22T10:19:21;99809.91;;;17.91;58.00
79690;BME280;69156;55.932;-3.238;2023-07-22T10:21:47;99813.60;;;17.64;58.99
79690;BME280;69156;55.932;-3.238;2023-07-22T10:24:12;99813.81;;;17.77;58.66
79690;BME280;69156;55.932;-3.238;2023-07-22T10:26:37;99808.01;;;17.88;58.43
79690;BME280;69156;55.932;-3.238;2023-07-22T10:29:03;99811.93;;;18.04;57.52
79690;BME280;69156;55.932;-3.238;2023-07-22T10:31:30;99811.73;;;17.86;57.90
79690;BME280;69156;55.932;-3.238;2023-07-22T10:33:54;99808.23;;;17.44;60.43
79690;BME280;69156;55.932;-3.238;2023-07-22T10:36:19;99807.64;;;17.48;60.78
79690;BME280;69156;55.932;-3.238;2023-07-22T10:38:55;99809.65;;;17.58;60.62
79690;BME280;69156;55.932;-3.238;2023-07-22T10:41:13;99809.78;;;17.62;59.89
79690;BME280;69156;55.932;-3.238;2023-07-22T10:43:35;99812.46;;;17.43;62.32
79690;BME280;69156;55.932;-3.238;2023-07-22T10:46:06;99812.52;;;17.49;63.13
79690;BME280;69156;55.932;-3.238;2023-07-22T10:48:27;99813.19;;;17.09;63.07
79690;BME280;69156;55.932;-3.238;2023-07-22T10:50:53;99815.50;;;17.11;64.09
79690;BME280;69156;55.932;-3.238;2023-07-22T10:53:29;99814.22;;;17.04;65.11
79690;BME280;69156;55.932;-3.238;2023-07-22T10:56:18;99809.09;;;17.13;66.18
79690;BME280;69156;55.932;-3.238;2023-07-22T10:58:09;99809.52;;;16.92;65.42
79690;BME280;69156;55.932;-3.238;2023-07-22T11:00:35;99800.59;;;17.23;65.73
79690;BME280;69156;55.932;-3.238;2023-07-22T11:03:19;99803.03;;;17.65;65.96
79690;BME280;69156;55.932;-3.238;2023-07-22T11:05:47;99801.27;;;17.52;64.92
79690;BME280;69156;55.932;-3.238;2023-07-22T11:07:51;99796.03;;;17.20;63.57
79690;BME280;69156;55.932;-3.238;2023-07-22T11:10:18;99797.78;;;17.12;64.07
79690;BME280;69156;55.932;-3.238;2023-07-22T11:12:43;99787.18;;;17.26;64.84
79690;BME280;69156;55.932;-3.238;2023-07-22T11:15:07;99790.23;;;17.62;64.07
79690;BME280;69156;55.932;-3.238;2023-07-22T11:17:33;99793.86;;;17.70;62.35
79690;BME280;69156;55.932;-3.238;2023-07-22T11:20:09;99791.03;;;17.77;61.41
79690;BME280;69156;55.932;-3.238;2023-07-22T11:22:29;99788.36;;;17.91;60.65
79690;BME280;69156;55.932;-3.238;2023-07-22T11:24:58;99790.67;;;18.12;60.12
79690;BME280;69156;55.932;-3.238;2023-07-22T11:27:27;99791.50;;;17.97;59.08
79690;BME280;69156;55.932;-3.238;2023-07-22T11:29:52;99783.38;;;18.00;59.74
79690;BME280;69156;55.932;-3.238;2023-07-22T11:32:18;99784.33;;;18.16;58.75
79690;BME280;69156;55.932;-3.238;2023-07-22T11:34:42;99781.65;;;18.07;58.61
79690;BME280;69156;55.932;-3.238;2023-07-22T11:37:07;99778.06;;;18.18;58.99
79690;BME280;69156;55.932;-3.238;2023-07-22T11:39:33;99771.89;;;18.29;57.71
79690;BME280;69156;55.932;-3.238;2023-07-22T11:42:00;99774.57;;;18.39;57.40
79690;BME280;69156;55.932;-3.238;2023-07-22T11:44:27;99772.50;;;18.49;57.39
79690;BME280;69156;55.932;-3.238;2023-07-22T11:46:53;99767.45;;;18.57;56.74
79690;BME280;69156;55.932;-3.238;2023-07-22T11:49:22;99761.40;;;18.56;56.60
79690;BME280;69156;55.932;-3.238;2023-07-22T11:51:42;99757.65;;;18.71;56.63
79690;BME280;69156;55.932;-3.238;2023-07-22T11:54:08;99758.69;;;18.55;56.44
79690;BME280;69156;55.932;-3.238;2023-07-22T11:56:32;99756.33;;;18.79;56.09
79690;BME280;69156;55.932;-3.238;2023-07-22T11:58:57;99756.40;;;18.66;56.82
79690;BME280;69156;55.932;-3.238;2023-07-22T12:01:23;99754.67;;;18.66;56.66
79690;BME280;69156;55.932;-3.238;2023-07-22T12:03:49;99755.29;;;18.48;56.79
79690;BME280;69156;55.932;-3.238;2023-07-22T12:06:15;99751.17;;;18.50;56.75
79690;BME280;69156;55.932;-3.238;2023-07-22T12:08:44;99753.56;;;18.52;57.22
79690;BME280;69156;55.932;-3.238;2023-07-22T12:11:05;99754.68;;;18.55;56.54
79690;BME280;69156;55.932;-3.238;2023-07-22T12:13:36;99750.71;;;18.58;56.85
79690;BME280;69156;55.932;-3.238;2023-07-22T12:16:01;99750.32;;;18.78;57.70
79690;BME280;69156;55.932;-3.238;2023-07-22T12:18:22;99751.69;;;18.99;56.13
79690;BME280;69156;55.932;-3.238;2023-07-22T12:20:47;99751.09;;;19.00;54.95
79690;BME280;69156;55.932;-3.238;2023-07-22T12:23:12;99748.47;;;18.93;55.47
79690;BME280;69156;55.932;-3.238;2023-07-22T12:25:37;99745.97;;;19.01;55.34
79690;BME280;69156;55.932;-3.238;2023-07-22T12:28:04;99741.67;;;18.63;56.15
79690;BME280;69156;55.932;-3.238;2023-07-22T12:30:30;99739.54;;;18.55;56.60
79690;BME280;69156;55.932;-3.238;2023-07-22T12:32:56;99740.73;;;18.49;56.75
79690;BME280;69156;55.932;-3.238;2023-07-22T12:35:21;99738.91;;;18.31;56.69
79690;BME280;69156;55.932;-3.238;2023-07-22T12:37:47;99737.89;;;18.59;57.10